Time;durP1;ratioP1;P1;durP2;ratioP2;P2;SDS_P1;SDS_P2;PMS_P1;PMS_P2;Temp;Humidity;BMP_temperature;BMP_pressure;BME280_temperature;BME280_humidity;BME280_pressure;Samples;Min_cycle;Max_cycle;Signal;HPM_P1;HPM_P2
2022/09/25 00:01:22;;;;;;;11.37;3.57;;;16.70;68.70;;;;;;5058846;28;20653;-92
2022/09/25 00:03:52;;;;;;;7.47;2.53;;;16.60;68.70;;;;;;5057361;28;20223;-92
2022/09/25 00:06:20;;;;;;;12.90;3.77;;;16.70;68.80;;;;;;5057291;28;20205;-92
2022/09/25 00:08:51;;;;;;;7.30;2.30;;;16.60;68.70;;;;;;5060083;28;20224;-91
2022/09/25 00:11:21;;;;;;;10.83;2.83;;;16.60;68.80;;;;;;5060674;28;20195;-93
2022/09/25 00:13:52;;;;;;;6.37;2.30;;;16.60;68.90;;;;;;5059431;28;20260;-92
2022/09/25 00:16:22;;;;;;;11.17;2.73;;;16.60;69.10;;;;;;5058381;28;20279;-92
2022/09/25 00:21:55;;;;;;;9.73;3.00;;;16.50;69.10;;;;;;5041987;28;20232;-92
2022/09/25 00:24:54;;;;;;;8.60;2.40;;;16.50;69.30;;;;;;5061956;28;20209;-93
2022/09/25 00:27:27;;;;;;;10.20;3.00;;;16.50;70.00;;;;;;5019965;28;20207;-92
2022/09/25 00:32:47;;;;;;;10.60;3.27;;;16.50;70.00;;;;;;5056755;28;20205;-93
2022/09/25 00:35:31;;;;;;;6.63;2.20;;;16.40;69.80;;;;;;5067241;28;20216;-93
2022/09/25 00:38:02;;;;;;;9.67;2.53;;;16.40;70.10;;;;;;5066933;28;20226;-93
2022/09/25 00:40:31;;;;;;;5.37;2.00;;;16.40;69.80;;;;;;5065970;28;20264;-94
2022/09/25 00:43:02;;;;;;;6.67;1.97;;;16.40;70.00;;;;;;5061144;28;20211;-93
2022/09/25 00:45:32;;;;;;;8.30;2.20;;;16.40;70.10;;;;;;5057710;28;20200;-93
2022/09/25 00:48:01;;;;;;;8.93;2.53;;;16.40;70.20;;;;;;5061100;28;20200;-92
2022/09/25 00:51:12;;;;;;;11.27;3.30;;;16.40;70.20;;;;;;5066408;28;20268;-92
2022/09/25 00:53:43;;;;;;;6.03;1.97;;;16.40;70.30;;;;;;5057257;28;20650;-93
2022/09/25 00:56:14;;;;;;;7.50;2.27;;;16.40;70.10;;;;;;5058729;28;20219;-93
2022/09/25 00:58:43;;;;;;;6.63;2.30;;;16.40;70.20;;;;;;5059073;28;20208;-93
2022/09/25 01:01:11;;;;;;;11.73;3.73;;;16.40;70.00;;;;;;5066294;28;20262;-91
2022/09/25 01:03:41;;;;;;;5.57;2.53;;;16.40;70.00;;;;;;5051993;28;20229;-93
2022/09/25 01:06:12;;;;;;;3.63;1.60;;;16.40;70.20;;;;;;5070585;28;20210;-93
2022/09/25 01:08:40;;;;;;;11.73;3.40;;;16.30;70.00;;;;;;5064016;28;20778;-92
2022/09/25 01:11:07;;;;;;;6.20;2.13;;;16.30;69.80;;;;;;5064478;28;20201;-94
2022/09/25 01:13:41;;;;;;;9.90;3.30;;;16.30;69.80;;;;;;5064120;28;20211;-94
2022/09/25 01:16:20;;;;;;;10.73;2.63;;;16.20;70.10;;;;;;5045512;28;20192;-93
2022/09/25 01:19:06;;;;;;;10.27;2.77;;;16.20;70.10;;;;;;5059113;28;20214;-93
2022/09/25 01:21:43;;;;;;;11.33;3.33;;;16.20;70.20;;;;;;5040737;28;20200;-92
2022/09/25 01:24:46;;;;;;;9.20;2.57;;;16.20;70.10;;;;;;5060291;28;20204;-94
2022/09/25 01:27:43;;;;;;;7.97;2.70;;;16.10;70.20;;;;;;5047568;28;20222;-94
2022/09/25 01:30:21;;;;;;;11.57;3.37;;;16.00;69.90;;;;;;5065103;28;20270;-93
2022/09/25 01:33:10;;;;;;;6.37;2.13;;;16.00;70.00;;;;;;5056405;28;20200;-93
2022/09/25 01:35:47;;;;;;;13.33;3.37;;;16.00;70.30;;;;;;5056071;28;20337;-92
2022/09/25 01:38:30;;;;;;;6.60;2.10;;;15.90;69.80;;;;;;5070058;28;20208;-93
2022/09/25 01:44:13;;;;;;;11.23;2.97;;;15.80;70.20;;;;;;5084234;22;20247;-93
2022/09/25 01:46:47;;;;;;;9.93;3.00;;;15.80;70.20;;;;;;5053964;28;20200;-93
2022/09/25 01:49:20;;;;;;;12.03;3.43;;;15.80;70.20;;;;;;5054010;28;20723;-93
2022/09/25 01:51:51;;;;;;;9.43;2.60;;;15.70;70.20;;;;;;5055967;28;20200;-92
2022/09/25 01:54:23;;;;;;;8.00;2.57;;;15.70;70.30;;;;;;5054365;28;20201;-93
2022/09/25 01:56:55;;;;;;;7.47;2.17;;;15.60;70.20;;;;;;5054795;28;20255;-92
2022/09/25 01:59:30;;;;;;;12.50;3.03;;;15.60;70.40;;;;;;5041516;28;20215;-93
2022/09/25 02:02:12;;;;;;;10.77;3.37;;;15.60;70.60;;;;;;5056280;28;20207;-93
2022/09/25 02:04:45;;;;;;;9.27;2.87;;;15.50;70.40;;;;;;5056184;28;20681;-92
2022/09/25 02:07:21;;;;;;;5.70;2.17;;;15.50;70.40;;;;;;5057441;28;20267;-92
2022/09/25 02:09:51;;;;;;;10.50;3.47;;;15.40;70.70;;;;;;5052805;28;20231;-93
2022/09/25 02:12:26;;;;;;;8.40;2.60;;;15.40;70.70;;;;;;5056677;28;20204;-94
2022/09/25 02:15:08;;;;;;;11.57;3.60;;;15.40;70.90;;;;;;5056987;28;20203;-92
2022/09/25 02:20:32;;;;;;;7.23;2.17;;;15.30;71.00;;;;;;5051884;28;20267;-92
2022/09/25 02:23:08;;;;;;;5.60;2.10;;;15.30;70.90;;;;;;5053475;28;20200;-92
2022/09/25 02:25:42;;;;;;;8.37;2.23;;;15.20;70.90;;;;;;5047658;28;20180;-93
2022/09/25 02:28:09;;;;;;;7.33;2.53;;;15.20;70.80;;;;;;5069252;28;20224;-94
2022/09/25 02:30:40;;;;;;;5.50;1.93;;;15.20;70.80;;;;;;5054436;28;20303;-92
2022/09/25 02:33:15;;;;;;;9.83;2.37;;;15.10;71.00;;;;;;5056702;28;20698;-92
2022/09/25 02:35:43;;;;;;;6.43;1.93;;;15.10;71.00;;;;;;5058353;28;20203;-93
2022/09/25 02:38:15;;;;;;;8.80;2.23;;;15.10;71.10;;;;;;5057757;28;20202;-93
2022/09/25 02:40:54;;;;;;;4.93;1.80;;;15.00;71.20;;;;;;5059235;28;20246;-92
2022/09/25 02:43:36;;;;;;;12.30;2.70;;;15.00;71.60;;;;;;5060892;28;20223;-93
2022/09/25 02:46:14;;;;;;;12.07;3.53;;;15.00;71.60;;;;;;5057910;28;20197;-94
2022/09/25 02:48:51;;;;;;;6.97;2.43;;;14.90;71.50;;;;;;5055670;28;20207;-93
2022/09/25 02:51:27;;;;;;;12.03;3.43;;;14.90;71.50;;;;;;5048862;28;20279;-93
2022/09/25 02:54:06;;;;;;;8.83;2.40;;;14.90;71.60;;;;;;5069183;28;20200;-93
2022/09/25 02:56:45;;;;;;;10.83;2.47;;;14.90;72.10;;;;;;5060220;28;20218;-93
2022/09/25 02:59:19;;;;;;;10.27;2.43;;;14.80;72.00;;;;;;5056886;28;20361;-92
2022/09/25 03:01:47;;;;;;;12.13;3.60;;;14.80;72.20;;;;;;5053624;28;20200;-92
2022/09/25 03:04:22;;;;;;;9.03;2.93;;;14.70;72.00;;;;;;5055062;28;20285;-93
2022/09/25 03:06:51;;;;;;;6.13;2.10;;;14.70;72.20;;;;;;5056676;28;20191;-94
2022/09/25 03:09:21;;;;;;;11.50;3.17;;;14.70;72.00;;;;;;5057633;28;20224;-92
2022/09/25 03:11:53;;;;;;;9.63;2.93;;;14.70;72.40;;;;;;5060837;28;20203;-92
2022/09/25 03:14:23;;;;;;;5.67;2.10;;;14.70;72.60;;;;;;5059969;28;20649;-93
2022/09/25 03:16:55;;;;;;;5.77;2.20;;;14.70;72.60;;;;;;5060206;28;20206;-93
2022/09/25 03:19:27;;;;;;;8.17;2.30;;;14.60;72.70;;;;;;5058670;28;20651;-93
2022/09/25 03:21:55;;;;;;;7.97;2.27;;;14.70;73.00;;;;;;5060550;28;20204;-93
2022/09/25 03:24:31;;;;;;;6.23;1.90;;;14.60;72.90;;;;;;5062210;28;20271;-93
2022/09/25 03:27:04;;;;;;;7.27;2.43;;;14.60;73.90;;;;;;5060612;28;20196;-94
2022/09/25 03:29:33;;;;;;;8.77;2.70;;;14.60;74.30;;;;;;5044018;28;20636;-93
2022/09/25 03:32:07;;;;;;;7.30;2.37;;;14.60;73.90;;;;;;5058490;28;20212;-92
2022/09/25 03:34:37;;;;;;;5.20;1.90;;;14.60;73.90;;;;;;5061823;28;20616;-91
2022/09/25 03:37:11;;;;;;;5.20;1.87;;;14.60;74.30;;;;;;5061367;28;20304;-92
2022/09/25 03:39:40;;;;;;;5.70;2.00;;;14.60;74.70;;;;;;5059791;28;20202;-93
2022/09/25 03:42:07;;;;;;;12.03;2.77;;;14.60;74.80;;;;;;5060539;28;20208;-93
2022/09/25 03:45:11;;;;;;;13.63;3.63;;;14.60;74.90;;;;;;5056347;28;20659;-93
2022/09/25 03:47:51;;;;;;;9.17;2.43;;;14.60;76.60;;;;;;5052443;28;20200;-93
2022/09/25 03:50:42;;;;;;;7.67;2.57;;;14.60;76.50;;;;;;5060482;28;20306;-93
2022/09/25 03:53:09;;;;;;;6.73;2.67;;;14.60;76.90;;;;;;5041276;28;20932;-94
2022/09/25 03:55:39;;;;;;;7.93;2.93;;;14.60;76.80;;;;;;5052658;28;20202;-93
2022/09/25 03:58:06;;;;;;;10.20;3.60;;;14.60;78.30;;;;;;5053942;28;20264;-94
2022/09/25 04:00:34;;;;;;;7.67;2.50;;;14.60;78.20;;;;;;5056902;28;20223;-94
2022/09/25 04:03:33;;;;;;;8.93;3.13;;;14.60;79.00;;;;;;5058245;28;20220;-93
2022/09/25 04:06:09;;;;;;;13.40;3.63;;;14.70;81.50;;;;;;5043844;28;20295;-94
2022/09/25 04:08:38;;;;;;;7.40;2.37;;;14.70;80.60;;;;;;5056134;28;20997;-95
2022/09/25 04:11:06;;;;;;;5.97;2.23;;;14.70;80.60;;;;;;5041176;28;20726;-93
2022/09/25 04:19:12;;;;;;;12.77;3.17;;;14.80;80.10;;;;;;4991125;28;20628;-94
2022/09/25 04:22:12;;;;;;;3.37;1.80;;;14.80;81.50;;;;;;5052506;28;20661;-94
2022/09/25 04:25:09;;;;;;;13.50;4.33;;;14.90;81.90;;;;;;5008824;28;20236;-94
2022/09/25 04:27:37;;;;;;;8.20;3.03;;;14.90;79.90;;;;;;5053851;28;20204;-93
2022/09/25 04:30:06;;;;;;;11.87;3.47;;;14.90;79.80;;;;;;5050380;28;20349;-94
2022/09/25 04:35:42;;;;;;;17.70;4.40;;;15.00;82.10;;;;;;5056094;28;20211;-95
2022/09/25 04:38:11;;;;;;;9.87;3.27;;;15.00;80.80;;;;;;5058716;28;20303;-95
2022/09/25 04:40:39;;;;;;;11.90;3.57;;;15.00;81.10;;;;;;5049177;28;20259;-94
2022/09/25 04:46:00;;;;;;;11.80;3.87;;;15.00;81.70;;;;;;5017654;28;20200;-94
2022/09/25 04:48:40;;;;;;;11.40;3.23;;;15.00;80.70;;;;;;5054293;28;20618;-94
2022/09/25 04:51:09;;;;;;;10.57;3.37;;;15.10;82.60;;;;;;5055529;28;20776;-96
2022/09/25 04:54:03;;;;;;;8.23;2.73;;;15.10;82.20;;;;;;5053306;28;20255;-93
2022/09/25 04:59:50;;;;;;;10.27;3.67;;;15.10;83.40;;;;;;5054959;28;20207;-93
2022/09/25 05:02:18;;;;;;;11.13;3.67;;;15.10;82.60;;;;;;5055214;28;20637;-95
2022/09/25 05:04:48;;;;;;;10.67;3.53;;;15.10;82.60;;;;;;5056250;28;20781;-96
2022/09/25 05:07:15;;;;;;;17.47;4.77;;;15.10;84.10;;;;;;5054883;28;20650;-94
2022/09/25 05:09:44;;;;;;;13.27;4.43;;;15.20;82.30;;;;;;5052795;28;20201;-94
2022/09/25 05:12:12;;;;;;;12.30;4.17;;;15.20;82.70;;;;;;5051827;28;20204;-94
2022/09/25 05:14:41;;;;;;;13.50;4.17;;;15.20;82.60;;;;;;5052287;28;20211;-93
2022/09/25 05:17:10;;;;;;;10.27;3.93;;;15.20;82.10;;;;;;5053951;28;20715;-93
2022/09/25 05:19:39;;;;;;;10.53;3.37;;;15.20;82.30;;;;;;5054081;28;20212;-93
2022/09/25 05:22:12;;;;;;;11.10;3.50;;;15.30;82.80;;;;;;5052291;28;20243;-92
2022/09/25 05:24:40;;;;;;;6.53;2.90;;;15.20;83.00;;;;;;5054643;28;20204;-94
2022/09/25 05:27:09;;;;;;;10.33;3.23;;;15.30;82.50;;;;;;5054332;28;20228;-93
2022/09/25 05:30:07;;;;;;;12.40;3.97;;;15.30;82.40;;;;;;5054357;28;20231;-94
2022/09/25 05:32:35;;;;;;;7.23;2.67;;;15.30;82.80;;;;;;5054918;28;20803;-92
2022/09/25 05:35:04;;;;;;;8.20;2.87;;;15.30;81.60;;;;;;5053392;28;20636;-92
2022/09/25 05:37:32;;;;;;;12.50;4.00;;;15.30;81.40;;;;;;5051318;28;20204;-92
2022/09/25 05:39:59;;;;;;;13.30;4.00;;;15.30;81.20;;;;;;5050566;28;20206;-93
2022/09/25 05:42:30;;;;;;;8.67;3.13;;;15.30;81.20;;;;;;5052098;28;20251;-92
2022/09/25 05:44:57;;;;;;;12.23;4.13;;;15.30;81.50;;;;;;5052529;28;20203;-92
2022/09/25 05:47:24;;;;;;;9.83;4.13;;;15.30;81.00;;;;;;5051940;28;20204;-92
2022/09/25 05:49:51;;;;;;;11.43;4.03;;;15.30;81.10;;;;;;5051508;28;20243;-92
2022/09/25 05:52:18;;;;;;;11.77;4.10;;;15.30;81.20;;;;;;5052327;28;20184;-92
2022/09/25 05:54:46;;;;;;;8.17;3.40;;;15.20;80.70;;;;;;5053583;28;20208;-92
2022/09/25 05:57:15;;;;;;;11.53;4.23;;;15.20;80.20;;;;;;5053176;28;20200;-92
2022/09/25 05:59:48;;;;;;;12.97;4.13;;;15.20;80.20;;;;;;5050959;28;20205;-91
2022/09/25 06:02:15;;;;;;;11.00;3.43;;;15.20;80.60;;;;;;5052433;28;20208;-92
2022/09/25 06:04:44;;;;;;;9.87;3.67;;;15.20;80.00;;;;;;5055201;28;20628;-92
2022/09/25 06:07:12;;;;;;;11.90;4.03;;;15.20;80.50;;;;;;5059941;28;20216;-92
2022/09/25 06:09:39;;;;;;;10.90;3.97;;;15.20;80.00;;;;;;5056623;28;20241;-92
2022/09/25 06:12:06;;;;;;;10.50;3.87;;;15.10;79.90;;;;;;5042551;28;21034;-91
2022/09/25 06:14:35;;;;;;;11.17;3.90;;;15.20;80.20;;;;;;5034907;28;20200;-92
2022/09/25 06:17:06;;;;;;;10.37;3.13;;;15.10;80.70;;;;;;5034779;28;20271;-92
2022/09/25 06:19:34;;;;;;;9.83;3.03;;;15.10;80.80;;;;;;5048840;28;20300;-91
2022/09/25 06:22:02;;;;;;;14.37;4.50;;;15.10;80.80;;;;;;5051720;28;20204;-91
2022/09/25 06:24:31;;;;;;;11.27;3.80;;;15.10;80.60;;;;;;5051875;28;20232;-91
2022/09/25 06:26:59;;;;;;;11.17;3.67;;;15.10;81.00;;;;;;5055840;28;20309;-92
2022/09/25 06:29:29;;;;;;;9.83;3.67;;;15.00;80.90;;;;;;5064267;28;20203;-92
2022/09/25 06:31:56;;;;;;;14.53;3.93;;;15.00;81.40;;;;;;5064185;28;20210;-94
2022/09/25 06:34:29;;;;;;;9.70;3.10;;;15.00;81.00;;;;;;5057378;28;20203;-92
2022/09/25 06:36:59;;;;;;;7.57;3.07;;;15.00;82.50;;;;;;5036985;28;20211;-92
2022/09/25 06:39:27;;;;;;;8.37;3.10;;;15.00;81.50;;;;;;5033332;28;20246;-91
2022/09/25 06:41:54;;;;;;;11.37;3.00;;;15.00;81.40;;;;;;5032227;28;20219;-94
2022/09/25 06:44:23;;;;;;;10.60;3.93;;;15.00;81.90;;;;;;5035568;28;20220;-91
2022/09/25 06:46:53;;;;;;;7.00;2.63;;;15.00;82.50;;;;;;5052420;28;20204;-90
2022/09/25 06:49:22;;;;;;;12.00;4.10;;;15.00;83.00;;;;;;5052747;28;20701;-92
2022/09/25 06:51:50;;;;;;;11.13;3.87;;;15.00;83.80;;;;;;5051122;28;20283;-93
2022/09/25 06:54:18;;;;;;;13.10;4.57;;;15.00;83.50;;;;;;5051236;28;20232;-94
2022/09/25 06:56:48;;;;;;;11.97;4.30;;;15.00;83.30;;;;;;5050963;28;20287;-92
2022/09/25 06:59:17;;;;;;;13.23;4.07;;;15.10;84.30;;;;;;5051006;28;20291;-92
2022/09/25 07:01:45;;;;;;;10.63;3.57;;;15.10;84.40;;;;;;5041772;28;20234;-93
2022/09/25 07:04:12;;;;;;;7.93;3.00;;;15.10;84.50;;;;;;5033061;28;20279;-92
2022/09/25 07:06:39;;;;;;;10.10;3.57;;;15.10;85.40;;;;;;5032846;28;20212;-93
2022/09/25 07:09:10;;;;;;;9.27;3.50;;;15.20;86.40;;;;;;5040265;28;20547;-93
2022/09/25 07:11:42;;;;;;;9.80;3.43;;;15.20;87.60;;;;;;5053253;28;20216;-93
2022/09/25 07:14:10;;;;;;;10.33;3.93;;;15.20;87.80;;;;;;5053237;28;20215;-93
2022/09/25 07:16:38;;;;;;;10.10;3.70;;;15.30;87.80;;;;;;5053679;28;20601;-94
2022/09/25 07:19:06;;;;;;;9.93;3.27;;;15.30;88.30;;;;;;5055671;28;20210;-93
2022/09/25 07:21:37;;;;;;;8.83;3.57;;;15.40;89.10;;;;;;5057691;28;20718;-93
2022/09/25 07:24:05;;;;;;;9.33;3.87;;;15.40;90.00;;;;;;5057182;28;20652;-93
2022/09/25 07:26:36;;;;;;;9.00;3.17;;;15.50;90.00;;;;;;5057187;28;20208;-91
2022/09/25 07:29:05;;;;;;;11.90;3.83;;;15.50;90.40;;;;;;5055717;28;20625;-93
2022/09/25 07:31:34;;;;;;;8.10;3.57;;;15.50;90.20;;;;;;5057736;28;20325;-93
2022/09/25 07:34:15;;;;;;;8.60;3.07;;;15.60;90.00;;;;;;5057777;28;20262;-94
2022/09/25 07:36:45;;;;;;;8.73;3.23;;;15.70;90.50;;;;;;5057571;28;20241;-93
2022/09/25 07:39:15;;;;;;;7.63;2.97;;;15.70;90.10;;;;;;5057244;28;20205;-93
2022/09/25 07:41:43;;;;;;;12.83;4.07;;;15.80;90.20;;;;;;5056218;28;20232;-93
2022/09/25 07:44:11;;;;;;;7.80;3.03;;;15.80;89.80;;;;;;5055931;28;20216;-93
2022/09/25 07:46:43;;;;;;;11.37;3.97;;;15.90;89.40;;;;;;5055086;28;20225;-92
2022/09/25 07:49:11;;;;;;;8.57;3.33;;;15.90;89.40;;;;;;5055722;28;20242;-91
2022/09/25 07:51:39;;;;;;;6.67;3.10;;;15.90;88.80;;;;;;5054995;28;20803;-91
2022/09/25 07:54:06;;;;;;;5.63;3.07;;;16.00;88.80;;;;;;5055513;28;20201;-91
2022/09/25 07:56:34;;;;;;;11.00;4.37;;;16.00;88.70;;;;;;5056157;28;20242;-92
2022/09/25 07:59:03;;;;;;;10.80;4.10;;;16.10;88.50;;;;;;5053845;28;20284;-92
2022/09/25 08:01:30;;;;;;;9.63;4.20;;;16.10;89.20;;;;;;5055274;28;20206;-92
2022/09/25 08:03:58;;;;;;;15.83;4.60;;;16.20;88.10;;;;;;5048752;28;20279;-89
2022/09/25 08:06:27;;;;;;;9.87;4.03;;;16.10;88.30;;;;;;5054217;28;20208;-91
2022/09/25 08:08:54;;;;;;;7.90;3.60;;;16.20;88.10;;;;;;5054830;28;20204;-91
2022/09/25 08:11:22;;;;;;;8.27;3.63;;;16.20;87.80;;;;;;5054764;28;20236;-90
2022/09/25 08:13:49;;;;;;;11.30;4.17;;;16.30;87.70;;;;;;5054654;28;20213;-92
2022/09/25 08:16:21;;;;;;;16.37;4.97;;;16.30;87.50;;;;;;5055538;28;20254;-92
2022/09/25 08:18:49;;;;;;;8.07;3.50;;;16.30;88.90;;;;;;5054118;28;20206;-91
2022/09/25 08:21:19;;;;;;;12.13;4.27;;;16.30;88.50;;;;;;5053102;28;20235;-90
2022/09/25 08:23:49;;;;;;;10.07;3.93;;;16.30;89.10;;;;;;5053278;28;20237;-94
2022/09/25 08:26:17;;;;;;;12.97;4.03;;;16.40;89.10;;;;;;5052787;28;20209;-91
2022/09/25 08:28:44;;;;;;;10.70;4.30;;;16.40;89.20;;;;;;5054006;28;20239;-91
2022/09/25 08:31:13;;;;;;;9.50;4.33;;;16.40;90.60;;;;;;5054566;28;20280;-93
2022/09/25 08:33:44;;;;;;;8.40;3.37;;;16.50;90.20;;;;;;5053892;28;20305;-91
2022/09/25 08:36:11;;;;;;;9.27;3.70;;;16.50;90.70;;;;;;5053645;28;20224;-91
2022/09/25 08:38:39;;;;;;;11.67;4.27;;;16.60;89.60;;;;;;5043021;28;20752;-96
2022/09/25 08:41:13;;;;;;;10.97;3.67;;;16.70;90.60;;;;;;5036023;28;20218;-92
2022/09/25 08:43:45;;;;;;;9.43;3.40;;;16.80;90.70;;;;;;5036089;28;20213;-92
2022/09/25 08:49:06;;;;;;;11.63;4.00;;;16.90;90.30;;;;;;5050334;28;20715;-92
2022/09/25 08:51:41;;;;;;;10.77;3.63;;;17.00;90.10;;;;;;5053081;28;20222;-92
2022/09/25 08:54:13;;;;;;;12.23;4.00;;;17.20;89.40;;;;;;5055856;28;20201;-92
2022/09/25 08:56:40;;;;;;;11.03;3.83;;;17.30;90.10;;;;;;5055917;28;20221;-93
2022/09/25 08:59:22;;;;;;;7.90;3.10;;;17.40;90.00;;;;;;5059694;28;20201;-91
2022/09/25 09:01:55;;;;;;;9.60;3.40;;;17.50;90.90;;;;;;5061059;28;20246;-91
2022/09/25 09:04:31;;;;;;;11.03;3.73;;;17.70;90.50;;;;;;5040166;28;20201;-91
2022/09/25 09:07:04;;;;;;;8.27;2.47;;;17.80;90.70;;;;;;5047483;28;20199;-93
2022/09/25 09:09:39;;;;;;;11.37;3.63;;;18.00;90.00;;;;;;5056308;28;20268;-93
2022/09/25 09:12:10;;;;;;;6.77;3.00;;;18.20;89.30;;;;;;5060064;28;20261;-93
2022/09/25 09:14:43;;;;;;;9.90;3.60;;;18.40;88.00;;;;;;5056472;28;20425;-92
2022/09/25 09:17:17;;;;;;;5.97;2.73;;;18.60;87.70;;;;;;5052905;28;20645;-93
2022/09/25 09:19:53;;;;;;;7.17;2.43;;;18.80;86.60;;;;;;5055460;28;20193;-94
2022/09/25 09:22:29;;;;;;;7.47;2.77;;;18.90;85.40;;;;;;5055644;28;20239;-92
2022/09/25 09:25:17;;;;;;;4.77;1.90;;;19.00;84.80;;;;;;5060023;28;20233;-92
2022/09/25 09:28:02;;;;;;;5.77;1.70;;;19.20;84.40;;;;;;5057662;28;20200;-92
2022/09/25 09:30:36;;;;;;;5.90;2.07;;;19.30;82.50;;;;;;5055941;28;20199;-91
2022/09/25 09:33:21;;;;;;;5.63;2.20;;;19.40;80.20;;;;;;5051079;28;20227;-93
2022/09/25 09:36:06;;;;;;;6.20;2.17;;;19.50;78.70;;;;;;5035636;28;20189;-91
2022/09/25 09:38:58;;;;;;;11.03;3.30;;;19.60;77.80;;;;;;5049919;28;20227;-92
2022/09/25 09:41:37;;;;;;;5.10;2.00;;;19.80;78.00;;;;;;5048123;28;20205;-92
2022/09/25 09:44:19;;;;;;;6.37;2.10;;;19.80;79.00;;;;;;5036677;28;20669;-91
2022/09/25 09:46:57;;;;;;;9.17;2.87;;;19.90;79.80;;;;;;5039326;28;20217;-94
2022/09/25 09:49:34;;;;;;;6.57;2.60;;;20.00;79.70;;;;;;5040586;28;20199;-92
2022/09/25 09:52:13;;;;;;;6.30;2.43;;;20.20;79.00;;;;;;5042403;28;20242;-93
2022/09/25 09:54:48;;;;;;;5.47;2.20;;;20.30;79.10;;;;;;5044998;28;20539;-94
2022/09/25 09:57:21;;;;;;;7.17;2.57;;;20.40;78.90;;;;;;5037662;28;20211;-91
2022/09/25 09:59:56;;;;;;;6.70;2.57;;;20.60;77.70;;;;;;5026049;28;20234;-90
2022/09/25 10:02:33;;;;;;;6.33;2.07;;;20.70;76.10;;;;;;5057132;28;20227;-92
2022/09/25 10:08:09;;;;;;;8.87;3.07;;;20.90;77.90;;;;;;5061483;28;20207;-93
2022/09/25 10:11:03;;;;;;;6.63;1.97;;;21.00;76.20;;;;;;5066664;28;20207;-92
2022/09/25 10:13:34;;;;;;;4.90;1.83;;;21.00;75.90;;;;;;5065194;28;20208;-94
2022/09/25 10:16:08;;;;;;;7.80;2.17;;;21.10;76.10;;;;;;5060793;28;20733;-93
2022/09/25 10:18:46;;;;;;;3.60;1.20;;;21.10;74.70;;;;;;5045394;28;20213;-92
2022/09/25 10:21:20;;;;;;;5.37;1.73;;;21.10;73.50;;;;;;5040224;28;20208;-96
2022/09/25 10:23:54;;;;;;;6.30;2.73;;;21.20;73.40;;;;;;5045104;28;20212;-94
2022/09/25 10:26:37;;;;;;;5.17;1.63;;;21.20;72.00;;;;;;5047207;28;20203;-92
2022/09/25 10:29:27;;;;;;;6.33;1.90;;;21.20;72.70;;;;;;5062379;28;20204;-96
2022/09/25 10:32:05;;;;;;;6.80;1.97;;;21.20;72.30;;;;;;5061155;28;20208;-92
2022/09/25 10:34:40;;;;;;;3.97;1.67;;;21.20;71.50;;;;;;5064232;28;20195;-90
2022/09/25 10:37:33;;;;;;;4.93;2.07;;;21.20;71.20;;;;;;5061726;28;20211;-95
2022/09/25 10:40:05;;;;;;;7.33;2.40;;;21.20;72.00;;;;;;5062161;28;20222;-92
2022/09/25 10:42:42;;;;;;;3.33;1.60;;;21.20;72.40;;;;;;5059534;28;20214;-92
2022/09/25 10:45:30;;;;;;;4.50;1.90;;;21.10;72.00;;;;;;5062884;28;20211;-92
2022/09/25 10:50:44;;;;;;;5.33;2.03;;;21.20;72.00;;;;;;5060800;28;20183;-89
2022/09/25 10:53:32;;;;;;;6.23;1.97;;;21.10;71.80;;;;;;5057952;28;20227;-92
2022/09/25 10:56:08;;;;;;;4.90;1.73;;;21.10;71.30;;;;;;5063354;28;20204;-92
2022/09/25 10:58:46;;;;;;;5.70;1.97;;;21.10;71.50;;;;;;5086419;28;20203;-93
2022/09/25 11:04:38;;;;;;;11.73;2.20;;;21.10;71.80;;;;;;5062313;28;20228;-91
2022/09/25 11:07:15;;;;;;;3.80;1.47;;;21.10;71.60;;;;;;5065060;28;20210;-93
2022/09/25 11:09:46;;;;;;;3.00;1.20;;;21.10;71.80;;;;;;5062474;28;20707;-92
2022/09/25 11:12:23;;;;;;;6.87;2.17;;;21.10;71.50;;;;;;5060855;28;20246;-92
2022/09/25 11:14:56;;;;;;;5.43;1.53;;;21.10;71.70;;;;;;5060351;28;20291;-92
2022/09/25 11:17:32;;;;;;;5.60;2.13;;;21.10;72.70;;;;;;5062681;28;20214;-93
2022/09/25 11:20:21;;;;;;;7.60;2.60;;;21.10;72.60;;;;;;5059016;28;20225;-91
2022/09/25 11:23:03;;;;;;;6.67;1.87;;;21.20;73.50;;;;;;5050640;28;20227;-91
2022/09/25 11:25:42;;;;;;;7.33;2.47;;;21.20;73.40;;;;;;5048233;28;20200;-92
2022/09/25 11:28:19;;;;;;;4.13;1.60;;;21.30;74.50;;;;;;5046052;28;20208;-92
2022/09/25 11:30:53;;;;;;;6.17;1.93;;;21.40;74.20;;;;;;5044512;28;20211;-92
2022/09/25 11:33:34;;;;;;;5.77;1.83;;;21.50;73.50;;;;;;5030457;28;20744;-92
2022/09/25 11:36:08;;;;;;;4.77;1.87;;;21.70;72.60;;;;;;5064548;28;20243;-92
2022/09/25 11:41:44;;;;;;;3.97;1.63;;;22.00;69.20;;;;;;5062700;28;20981;-92
2022/09/25 11:44:43;;;;;;;;;;;;;;;;;;;;;
2022/09/25 11:47:52;;;;;;;3.93;1.53;;;22.30;69.40;;;;;;5065108;28;20567;-93
2022/09/25 11:50:35;;;;;;;3.57;1.23;;;22.50;68.50;;;;;;5063693;28;20246;-95
2022/09/25 11:53:11;;;;;;;6.10;2.17;;;22.70;69.50;;;;;;5064522;28;20269;-92
2022/09/25 11:55:57;;;;;;;5.17;2.00;;;22.90;70.60;;;;;;5058659;28;20200;-92
2022/09/25 11:58:42;;;;;;;5.70;1.87;;;23.10;68.10;;;;;;5064673;28;20259;-93
2022/09/25 12:01:25;;;;;;;4.27;1.70;;;23.30;68.80;;;;;;5068401;28;20211;-91
2022/09/25 12:04:15;;;;;;;5.40;1.83;;;23.50;66.60;;;;;;5045339;28;20233;-91
2022/09/25 12:07:34;;;;;;;4.07;1.83;;;23.70;68.00;;;;;;5055312;28;20207;-94
2022/09/25 12:10:30;;;;;;;5.33;1.90;;;23.90;65.60;;;;;;5067933;28;20191;-93
2022/09/25 12:13:06;;;;;;;4.97;2.17;;;24.20;65.30;;;;;;5066846;28;20224;-91
2022/09/25 12:16:00;;;;;;;5.63;2.40;;;24.40;65.90;;;;;;5065880;28;20199;-92
2022/09/25 12:18:54;;;;;;;4.47;1.77;;;24.60;62.20;;;;;;5067006;28;20200;-92
2022/09/25 12:21:33;;;;;;;5.47;2.03;;;24.80;63.20;;;;;;5058772;28;20204;-90
2022/09/25 12:24:09;;;;;;;4.13;1.57;;;24.90;62.10;;;;;;5038821;28;20204;-90
2022/09/25 12:26:56;;;;;;;9.53;3.10;;;25.10;61.10;;;;;;5056377;28;20708;-91
2022/09/25 12:29:36;;;;;;;6.57;2.17;;;25.20;59.80;;;;;;5056922;28;20200;-89
2022/09/25 12:32:23;;;;;;;5.00;2.07;;;25.30;59.80;;;;;;5056817;28;20247;-91
2022/09/25 12:35:11;;;;;;;4.70;1.90;;;25.30;59.50;;;;;;5055146;28;20208;-90
2022/09/25 12:37:43;;;;;;;4.30;1.63;;;25.30;58.90;;;;;;5056710;28;20204;-91
2022/09/25 12:40:19;;;;;;;5.23;2.17;;;25.30;59.40;;;;;;5056272;28;20303;-90
2022/09/25 12:43:08;;;;;;;5.30;1.83;;;25.30;58.90;;;;;;5037750;28;20687;-91
2022/09/25 12:45:41;;;;;;;3.53;1.67;;;25.20;58.60;;;;;;5055419;28;20650;-91
2022/09/25 12:48:15;;;;;;;6.77;2.53;;;25.20;58.50;;;;;;5039117;28;20270;-91
2022/09/25 12:50:51;;;;;;;4.20;1.83;;;25.10;57.90;;;;;;5052712;28;20196;-91
2022/09/25 12:53:27;;;;;;;6.40;2.63;;;25.00;57.40;;;;;;5054860;28;20254;-90
2022/09/25 12:56:04;;;;;;;5.17;1.97;;;24.80;56.90;;;;;;5055188;28;20234;-92
2022/09/25 12:58:58;;;;;;;5.97;2.20;;;24.70;57.40;;;;;;5055186;28;20242;-91
2022/09/25 13:01:47;;;;;;;;;;;;;;;;;;;;;
2022/09/25 13:04:34;;;;;;;5.00;1.97;;;24.40;57.70;;;;;;5056936;28;20224;-90
2022/09/25 13:07:29;;;;;;;4.50;1.73;;;24.30;57.00;;;;;;5055658;28;20210;-91
2022/09/25 13:10:32;;;;;;;6.07;2.30;;;24.10;56.70;;;;;;5051067;28;20210;-90
2022/09/25 13:13:04;;;;;;;5.03;2.00;;;23.90;57.20;;;;;;5071849;28;20242;-92
2022/09/25 13:15:39;;;;;;;5.77;1.93;;;23.80;57.20;;;;;;5062978;28;20209;-90
2022/09/25 13:18:22;;;;;;;10.07;2.37;;;23.60;57.70;;;;;;5057802;28;20211;-92
2022/09/25 13:20:55;;;;;;;6.80;1.83;;;23.40;57.90;;;;;;5055993;28;20244;-92
2022/09/25 13:23:39;;;;;;;6.03;2.00;;;23.30;57.90;;;;;;5054959;28;20200;-91
2022/09/25 13:26:12;;;;;;;8.20;2.33;;;23.10;57.30;;;;;;5055535;28;20208;-91
2022/09/25 13:28:48;;;;;;;6.17;2.17;;;23.10;58.10;;;;;;5036779;28;20235;-93
2022/09/25 13:31:26;;;;;;;4.67;1.63;;;23.00;58.00;;;;;;5036519;28;20203;-90
2022/09/25 13:33:56;;;;;;;7.10;2.17;;;22.90;58.10;;;;;;5036376;28;20216;-90
2022/09/25 13:36:46;;;;;;;5.77;2.00;;;22.90;58.20;;;;;;5039415;28;20233;-93
2022/09/25 13:42:28;;;;;;;4.20;1.57;;;22.70;57.50;;;;;;5053004;28;20269;-91
2022/09/25 13:45:21;;;;;;;5.50;1.63;;;22.70;57.90;;;;;;5056146;28;20214;-91
2022/09/25 13:48:03;;;;;;;6.00;2.10;;;22.70;57.80;;;;;;5051500;28;20208;-91
2022/09/25 13:50:40;;;;;;;5.30;1.63;;;22.70;57.80;;;;;;5035473;28;20235;-91
2022/09/25 13:53:25;;;;;;;4.37;1.13;;;22.70;57.80;;;;;;5035763;28;20256;-93
2022/09/25 13:56:34;;;;;;;5.27;1.83;;;22.70;57.00;;;;;;5020346;28;20215;-93
2022/09/25 13:59:43;;;;;;;6.07;1.83;;;22.80;56.80;;;;;;5040127;28;20213;-92
2022/09/25 14:02:42;;;;;;;3.37;1.20;;;22.80;56.80;;;;;;5053018;28;20253;-91
2022/09/25 14:05:16;;;;;;;4.30;1.60;;;22.90;56.50;;;;;;5054103;28;20725;-93
2022/09/25 14:07:50;;;;;;;4.27;1.93;;;22.90;57.40;;;;;;5054259;28;20190;-92
2022/09/25 14:10:18;;;;;;;5.17;1.90;;;22.90;57.10;;;;;;5055036;28;20226;-91
2022/09/25 14:12:56;;;;;;;4.97;1.57;;;22.90;57.20;;;;;;5053988;28;20230;-93